TUS weather

Tucson International Airport
Tucson, Arizona, United States

Public forecast

Using degrees Fahrenheit for public forecast. Weather courtesy of forecast.io.

Current aviation weather report (METAR) for Tucson International Airport

Retrieved 2020/04/02 02:53 UTC (19 minutes ago):

KTUS 020253Z 25007KT 10SM CLR 23/M04 A2984 RMK AO2 SLP073 T02281044 53016

Aviation forecast (TAF) for Tucson International Airport

Retrieved 2020-04-02 00:42 UTC (3 hours ago):

TAF KTUS 012339Z 0200/0224 22012G18KT P6SM SCT150 FM020300 23007KT P6SM FEW150 FM020700 16007KT P6SM SKC FM021700 19010KT P6SM SKC FM022000 24014G22KT P6SM SKC